Time;durP1;ratioP1;P1;durP2;ratioP2;P2;SDS_P1;SDS_P2;PMS_P1;PMS_P2;Temp;Humidity;BMP_temperature;BMP_pressure;BME280_temperature;BME280_humidity;BME280_pressure;Samples;Min_cycle;Max_cycle;Signal;HPM_P1;HPM_P2
2021/08/11 00:02:01;;;;;;;4.13;2.20;;;18.00;99.90;;;;;;5036905;28;20029;-89
2021/08/11 00:04:27;;;;;;;4.32;2.13;;;17.80;99.90;;;;;;5036903;28;20025;-89
2021/08/11 00:06:52;;;;;;;3.85;2.13;;;17.80;99.90;;;;;;5054667;28;20025;-89
2021/08/11 00:09:19;;;;;;;10.60;2.30;;;17.80;99.90;;;;;;5036632;28;20029;-90
2021/08/11 00:11:44;;;;;;;6.10;2.15;;;17.80;99.90;;;;;;5036300;28;20029;-90
2021/08/11 00:14:10;;;;;;;2.38;1.88;;;17.90;99.90;;;;;;5036782;28;20025;-89
2021/08/11 00:16:36;;;;;;;3.72;2.50;;;18.00;99.90;;;;;;5036534;28;20029;-90
2021/08/11 00:19:02;;;;;;;5.60;1.95;;;17.90;99.90;;;;;;5036857;28;20115;-90
2021/08/11 00:21:28;;;;;;;4.13;2.22;;;17.80;99.90;;;;;;5037477;28;20021;-89
2021/08/11 00:23:54;;;;;;;3.80;2.10;;;17.90;99.90;;;;;;5040103;28;20025;-90
2021/08/11 00:26:19;;;;;;;6.85;2.40;;;17.90;99.90;;;;;;5057928;28;20503;-89
2021/08/11 00:28:45;;;;;;;5.95;2.15;;;17.80;99.90;;;;;;5039313;28;20469;-90
2021/08/11 00:31:11;;;;;;;6.13;2.00;;;17.70;99.90;;;;;;5040151;28;20036;-90
2021/08/11 00:33:37;;;;;;;5.65;2.10;;;17.60;99.90;;;;;;5057906;28;20083;-90
2021/08/11 00:36:02;;;;;;;4.53;1.92;;;17.40;99.90;;;;;;5039972;28;20017;-89
2021/08/11 00:38:28;;;;;;;8.50;2.60;;;17.60;99.90;;;;;;5039817;28;20029;-89
2021/08/11 00:40:54;;;;;;;7.45;2.25;;;17.50;99.90;;;;;;5039829;28;20094;-89
2021/08/11 00:43:20;;;;;;;6.47;2.03;;;17.70;99.90;;;;;;5039104;28;20024;-89
2021/08/11 00:45:45;;;;;;;3.03;2.08;;;17.80;99.90;;;;;;5039850;28;20064;-91
2021/08/11 00:48:12;;;;;;;7.15;2.13;;;17.90;99.90;;;;;;5057651;28;20425;-89
2021/08/11 00:50:39;;;;;;;3.95;2.20;;;17.90;99.90;;;;;;5039837;28;20028;-89
2021/08/11 00:53:07;;;;;;;3.17;1.90;;;17.80;99.90;;;;;;5040247;28;20029;-88
2021/08/11 00:55:36;;;;;;;3.50;2.22;;;17.70;99.90;;;;;;5068513;28;20029;-89
2021/08/11 00:58:06;;;;;;;5.97;2.47;;;17.80;99.90;;;;;;5047153;28;20029;-89
2021/08/11 01:00:32;;;;;;;5.70;2.53;;;18.00;99.90;;;;;;5041091;28;20033;-90
2021/08/11 01:02:58;;;;;;;7.22;2.40;;;17.90;99.90;;;;;;5039264;28;20500;-89
2021/08/11 01:05:25;;;;;;;6.13;2.40;;;17.80;99.90;;;;;;5039895;28;20477;-89
2021/08/11 01:07:52;;;;;;;9.73;2.25;;;17.80;99.90;;;;;;5039380;28;20075;-90
2021/08/11 01:10:19;;;;;;;7.95;2.50;;;17.70;99.90;;;;;;5039434;28;20029;-89
2021/08/11 01:12:45;;;;;;;4.28;2.05;;;17.70;99.90;;;;;;5039558;28;20039;-90
2021/08/11 01:15:11;;;;;;;4.97;2.22;;;17.70;99.90;;;;;;5039319;28;20033;-89
2021/08/11 01:17:37;;;;;;;4.85;2.17;;;17.70;99.90;;;;;;5039207;28;20054;-89
2021/08/11 01:20:04;;;;;;;3.85;2.50;;;17.70;99.90;;;;;;5056572;28;20025;-89
2021/08/11 01:22:48;;;;;;;5.35;2.30;;;17.80;99.90;;;;;;5039098;28;20017;-89
2021/08/11 01:25:46;;;;;;;10.68;2.42;;;17.70;99.90;;;;;;5039336;28;20522;-90
2021/08/11 01:28:30;;;;;;;8.07;2.53;;;17.70;99.90;;;;;;5024058;28;20040;-89
2021/08/11 01:31:14;;;;;;;6.90;2.42;;;17.60;99.90;;;;;;5039099;28;20499;-89
2021/08/11 01:33:45;;;;;;;4.80;2.30;;;17.40;99.90;;;;;;5056272;28;20037;-90
2021/08/11 01:36:48;;;;;;;6.82;2.40;;;17.30;99.90;;;;;;5039082;28;20299;-90
2021/08/11 01:39:35;;;;;;;8.05;2.10;;;17.30;99.90;;;;;;5028536;28;20036;-90
2021/08/11 01:42:07;;;;;;;4.28;2.17;;;17.30;99.90;;;;;;5055516;28;20488;-89
2021/08/11 01:45:02;;;;;;;8.70;2.63;;;17.30;99.90;;;;;;5039090;28;20551;-90
2021/08/11 01:47:42;;;;;;;5.65;2.45;;;17.30;99.90;;;;;;5038879;28;20493;-90
2021/08/11 01:50:09;;;;;;;3.63;1.92;;;17.40;99.90;;;;;;5039299;28;20029;-89
2021/08/11 01:52:40;;;;;;;4.07;2.10;;;17.60;99.90;;;;;;5056626;28;20028;-89
2021/08/11 01:55:10;;;;;;;2.90;1.88;;;17.70;99.90;;;;;;5056562;28;20111;-89
2021/08/11 01:57:49;;;;;;;6.88;2.20;;;17.70;99.90;;;;;;5038739;28;20055;-89
2021/08/11 02:00:16;;;;;;;3.38;2.33;;;17.80;99.90;;;;;;5039318;28;20020;-89
2021/08/11 02:02:44;;;;;;;3.47;2.08;;;17.70;99.90;;;;;;5056215;28;20017;-90
2021/08/11 02:05:11;;;;;;;7.57;2.75;;;17.60;99.90;;;;;;5038406;28;20040;-89
2021/08/11 02:07:39;;;;;;;7.57;2.50;;;17.40;99.90;;;;;;5038523;28;20082;-89
2021/08/11 02:10:07;;;;;;;5.18;2.60;;;17.30;99.90;;;;;;5038197;28;20025;-89
2021/08/11 02:12:33;;;;;;;5.70;2.30;;;17.20;99.90;;;;;;5037651;28;20029;-89
2021/08/11 02:14:59;;;;;;;6.95;2.50;;;17.30;99.90;;;;;;5055838;28;20028;-89
2021/08/11 02:17:24;;;;;;;4.95;2.35;;;17.20;99.90;;;;;;5038131;28;20031;-90
2021/08/11 02:19:51;;;;;;;4.97;2.60;;;17.20;99.90;;;;;;5038077;28;20033;-89
2021/08/11 02:22:16;;;;;;;5.00;2.50;;;17.20;99.90;;;;;;5038020;28;20032;-90
2021/08/11 02:24:43;;;;;;;10.18;2.50;;;17.20;99.90;;;;;;5038022;28;20020;-89
2021/08/11 02:27:18;;;;;;;8.38;2.30;;;17.30;99.90;;;;;;5037684;28;20489;-89
2021/08/11 02:30:07;;;;;;;6.88;2.90;;;17.20;99.90;;;;;;5037358;28;20036;-89
2021/08/11 02:32:47;;;;;;;5.55;2.38;;;17.20;99.90;;;;;;5038348;28;20038;-90
2021/08/11 02:35:16;;;;;;;3.08;2.17;;;17.30;99.90;;;;;;5038259;28;20040;-90
2021/08/11 02:38:07;;;;;;;4.75;2.25;;;17.30;99.90;;;;;;5037788;28;20029;-89
2021/08/11 02:40:55;;;;;;;5.80;2.22;;;17.00;99.90;;;;;;5047557;28;20049;-90
2021/08/11 02:43:46;;;;;;;7.97;2.92;;;17.20;99.90;;;;;;5018021;28;20076;-89
2021/08/11 02:46:17;;;;;;;3.38;2.10;;;17.00;99.90;;;;;;5017970;28;20026;-90
2021/08/11 02:48:50;;;;;;;5.28;2.33;;;16.70;99.90;;;;;;5017882;28;20033;-89
2021/08/11 02:51:16;;;;;;;3.42;2.30;;;16.70;99.90;;;;;;5035955;28;20029;-90
2021/08/11 02:53:44;;;;;;;10.23;2.70;;;16.80;99.90;;;;;;5017934;28;20021;-89
2021/08/11 02:56:14;;;;;;;7.90;2.72;;;17.10;99.90;;;;;;5017645;28;20080;-89
2021/08/11 02:58:41;;;;;;;8.48;2.67;;;16.90;99.90;;;;;;5001780;28;20405;-89
2021/08/11 03:01:07;;;;;;;5.68;2.50;;;16.80;99.90;;;;;;5017138;28;20025;-89
2021/08/11 03:03:33;;;;;;;8.15;2.60;;;16.90;99.90;;;;;;5017631;28;20025;-89
2021/08/11 03:05:59;;;;;;;7.15;2.60;;;16.90;99.90;;;;;;5018119;28;20021;-89
2021/08/11 03:08:27;;;;;;;3.75;2.20;;;16.90;99.90;;;;;;5029540;28;20029;-89
2021/08/11 03:10:52;;;;;;;5.43;2.47;;;16.90;99.90;;;;;;5028113;28;20032;-90
2021/08/11 03:13:21;;;;;;;6.10;2.58;;;16.70;99.90;;;;;;5037400;28;20026;-90
2021/08/11 03:15:48;;;;;;;6.80;2.80;;;16.80;99.90;;;;;;5017986;28;20026;-90
2021/08/11 03:18:16;;;;;;;5.15;2.50;;;16.80;99.90;;;;;;5017020;28;20504;-89
2021/08/11 03:20:42;;;;;;;5.75;2.88;;;16.90;99.90;;;;;;5017506;28;20057;-89
2021/08/11 03:23:13;;;;;;;8.40;2.60;;;17.10;99.90;;;;;;5017741;28;20056;-89
2021/08/11 03:25:43;;;;;;;5.35;2.45;;;17.00;99.90;;;;;;5018338;28;20488;-90
2021/08/11 03:28:12;;;;;;;7.45;2.78;;;16.90;99.90;;;;;;5017309;28;20032;-90
2021/08/11 03:30:38;;;;;;;5.35;2.63;;;16.90;99.90;;;;;;5017463;28;20029;-89
2021/08/11 03:33:04;;;;;;;7.88;2.70;;;16.80;99.90;;;;;;5017752;28;20033;-89
2021/08/11 03:35:30;;;;;;;5.20;2.33;;;16.80;99.90;;;;;;5017150;28;20109;-89
2021/08/11 03:37:56;;;;;;;4.50;2.53;;;16.90;99.90;;;;;;5016721;28;20187;-89
2021/08/11 03:40:22;;;;;;;5.22;2.50;;;17.20;99.90;;;;;;5023420;28;20453;-90
2021/08/11 03:42:47;;;;;;;6.57;2.38;;;16.90;99.90;;;;;;5037410;28;20021;-90
2021/08/11 03:45:13;;;;;;;10.20;3.45;;;17.00;99.90;;;;;;5037321;28;20018;-90
2021/08/11 03:47:40;;;;;;;4.97;2.30;;;16.90;99.90;;;;;;5037214;28;20122;-90
2021/08/11 03:50:06;;;;;;;6.90;2.35;;;17.00;99.90;;;;;;5036978;28;20404;-89
2021/08/11 03:52:34;;;;;;;6.38;2.50;;;16.90;99.90;;;;;;5037453;28;20056;-90
2021/08/11 03:54:59;;;;;;;4.18;2.35;;;16.90;99.90;;;;;;5036414;28;20511;-90
2021/08/11 03:57:25;;;;;;;6.50;2.53;;;16.70;99.90;;;;;;5038916;28;20055;-90
2021/08/11 03:59:53;;;;;;;7.00;2.42;;;16.80;99.90;;;;;;5040632;28;20025;-90
2021/08/11 04:02:19;;;;;;;4.13;2.28;;;16.70;99.90;;;;;;5041117;28;20051;-90
2021/08/11 04:04:45;;;;;;;6.95;2.60;;;16.80;99.90;;;;;;5040788;28;20029;-90
2021/08/11 04:07:10;;;;;;;5.03;2.58;;;16.80;99.90;;;;;;5041034;28;20468;-90
2021/08/11 04:09:36;;;;;;;5.88;2.20;;;16.80;99.90;;;;;;5040469;28;20032;-90
2021/08/11 04:12:02;;;;;;;6.32;2.50;;;16.90;99.90;;;;;;5040268;28;20025;-90
2021/08/11 04:14:28;;;;;;;5.40;2.08;;;16.90;99.90;;;;;;5040884;28;20029;-90
2021/08/11 04:16:53;;;;;;;6.60;2.65;;;17.00;99.90;;;;;;5040471;28;20024;-90
2021/08/11 04:19:19;;;;;;;4.30;2.78;;;16.90;99.90;;;;;;5040883;28;20542;-89
2021/08/11 04:21:46;;;;;;;7.03;2.65;;;16.90;99.90;;;;;;5040534;28;20021;-90
2021/08/11 04:24:11;;;;;;;14.23;2.65;;;16.90;99.90;;;;;;5040372;28;20017;-90
2021/08/11 04:26:37;;;;;;;3.97;2.55;;;16.80;99.90;;;;;;5039898;28;20028;-90
2021/08/11 04:29:03;;;;;;;5.30;2.80;;;16.90;99.90;;;;;;5040248;28;20468;-89
2021/08/11 04:31:28;;;;;;;3.63;2.25;;;17.00;99.90;;;;;;5040204;28;20021;-90
2021/08/11 04:33:54;;;;;;;3.45;2.20;;;16.80;99.90;;;;;;5040093;28;20048;-90
2021/08/11 04:36:20;;;;;;;7.63;2.88;;;17.00;99.90;;;;;;5039768;28;20051;-89
2021/08/11 04:38:45;;;;;;;3.95;2.28;;;16.80;99.90;;;;;;5040051;28;20439;-89
2021/08/11 04:41:15;;;;;;;6.03;2.40;;;16.80;99.90;;;;;;5039991;28;20049;-90
2021/08/11 04:43:41;;;;;;;3.47;2.33;;;16.90;99.90;;;;;;5039376;28;20036;-89
2021/08/11 04:46:06;;;;;;;6.93;2.85;;;17.10;99.90;;;;;;5040001;28;20404;-90
2021/08/11 04:48:33;;;;;;;7.00;2.30;;;17.00;99.90;;;;;;5040106;28;20025;-89
2021/08/11 04:50:58;;;;;;;4.75;2.60;;;17.00;99.90;;;;;;5039820;28;20489;-90
2021/08/11 04:53:24;;;;;;;4.32;2.60;;;16.90;99.90;;;;;;5040037;28;20025;-89
2021/08/11 04:55:50;;;;;;;3.58;2.60;;;17.00;99.90;;;;;;5039774;28;20224;-89
2021/08/11 04:58:16;;;;;;;5.68;2.55;;;17.00;99.90;;;;;;5039805;28;20025;-89
2021/08/11 05:00:42;;;;;;;7.90;2.92;;;16.90;99.90;;;;;;5039026;28;20029;-90
2021/08/11 05:03:08;;;;;;;7.10;2.97;;;16.90;99.90;;;;;;5039610;28;20382;-89
2021/08/11 05:05:34;;;;;;;5.28;2.47;;;16.90;99.90;;;;;;5040117;28;20119;-90
2021/08/11 05:08:00;;;;;;;6.40;2.58;;;16.90;99.90;;;;;;5038671;28;20068;-90
2021/08/11 05:10:25;;;;;;;3.72;2.38;;;16.80;99.90;;;;;;5039307;28;20028;-90
2021/08/11 05:12:51;;;;;;;7.80;3.00;;;16.60;99.90;;;;;;5038018;28;20055;-90
2021/08/11 05:15:17;;;;;;;4.30;2.22;;;16.50;99.90;;;;;;5056109;28;20160;-90
2021/08/11 05:17:43;;;;;;;5.18;2.65;;;16.50;99.90;;;;;;5038770;28;20481;-91
2021/08/11 05:20:10;;;;;;;5.28;2.70;;;16.50;99.90;;;;;;5041839;28;20018;-90
2021/08/11 05:22:35;;;;;;;4.97;2.90;;;16.50;99.90;;;;;;5049222;28;20021;-91
2021/08/11 05:25:01;;;;;;;7.75;2.70;;;16.50;99.90;;;;;;5043519;28;20506;-90
2021/08/11 05:27:27;;;;;;;9.77;2.95;;;16.60;99.90;;;;;;5038133;28;20553;-90
2021/08/11 05:29:53;;;;;;;8.20;2.60;;;16.50;99.90;;;;;;5038096;28;20447;-91
2021/08/11 05:32:19;;;;;;;5.90;2.50;;;16.70;99.90;;;;;;5037748;28;20053;-91
2021/08/11 05:34:44;;;;;;;6.00;2.95;;;16.70;99.90;;;;;;5037577;28;20021;-90
2021/08/11 05:37:11;;;;;;;4.57;2.38;;;16.70;99.90;;;;;;5037578;28;20033;-91
2021/08/11 05:39:36;;;;;;;8.93;2.90;;;16.80;99.90;;;;;;5055200;28;20029;-89
2021/08/11 05:42:03;;;;;;;4.38;2.67;;;16.80;99.90;;;;;;5035238;28;20064;-90
2021/08/11 05:44:29;;;;;;;4.57;2.70;;;16.80;99.90;;;;;;5017683;28;20021;-90
2021/08/11 05:46:55;;;;;;;4.80;2.60;;;16.70;99.90;;;;;;5017730;28;20044;-90
2021/08/11 05:49:20;;;;;;;7.70;2.60;;;16.80;99.90;;;;;;5017196;28;20028;-89
2021/08/11 05:51:46;;;;;;;4.47;2.53;;;17.00;99.90;;;;;;5017522;28;20025;-89
2021/08/11 05:54:12;;;;;;;7.38;2.70;;;17.00;99.90;;;;;;5017129;28;20600;-90
2021/08/11 05:56:38;;;;;;;9.43;2.70;;;17.10;99.90;;;;;;5016839;28;20030;-89
2021/08/11 05:59:03;;;;;;;6.80;2.50;;;17.20;99.90;;;;;;5016972;28;20116;-89
2021/08/11 06:01:30;;;;;;;6.20;2.70;;;17.30;99.90;;;;;;5016781;28;20504;-89
2021/08/11 06:04:00;;;;;;;5.60;2.47;;;17.40;99.90;;;;;;5016671;28;20084;-88
2021/08/11 06:06:26;;;;;;;4.68;2.60;;;17.50;99.90;;;;;;5016628;28;20025;-89
2021/08/11 06:08:52;;;;;;;8.38;2.70;;;17.50;99.90;;;;;;5016499;28;20025;-88
2021/08/11 06:11:18;;;;;;;11.27;2.92;;;17.70;99.90;;;;;;5016548;28;20036;-89
2021/08/11 06:13:44;;;;;;;7.32;2.90;;;17.70;99.90;;;;;;5016682;28;20532;-89
2021/08/11 06:16:10;;;;;;;5.80;2.65;;;17.80;99.90;;;;;;5016530;28;20036;-89
2021/08/11 06:18:36;;;;;;;5.72;2.78;;;17.70;99.90;;;;;;5034183;28;20432;-89
2021/08/11 06:21:03;;;;;;;6.68;2.63;;;17.70;99.90;;;;;;5033945;28;20060;-89
2021/08/11 06:23:29;;;;;;;5.85;2.95;;;17.90;99.90;;;;;;5016393;28;20033;-90
2021/08/11 06:25:55;;;;;;;9.80;2.58;;;18.10;99.90;;;;;;5016335;28;20022;-89
2021/08/11 06:28:21;;;;;;;7.70;3.08;;;18.20;99.90;;;;;;5016505;28;20485;-88
2021/08/11 06:30:47;;;;;;;7.15;3.03;;;18.30;99.90;;;;;;5016517;28;20108;-89
2021/08/11 06:33:12;;;;;;;4.47;2.60;;;18.40;99.90;;;;;;5016301;28;20587;-89
2021/08/11 06:35:38;;;;;;;4.15;2.42;;;18.60;99.90;;;;;;5016306;28;20116;-89
2021/08/11 06:38:04;;;;;;;7.15;2.55;;;18.80;99.90;;;;;;5016165;28;20116;-88
2021/08/11 06:40:30;;;;;;;5.82;2.60;;;19.00;99.90;;;;;;5023220;28;20064;-89
2021/08/11 06:42:56;;;;;;;5.63;2.75;;;19.10;99.90;;;;;;5035868;28;20025;-89
2021/08/11 06:45:22;;;;;;;8.70;3.05;;;19.20;99.90;;;;;;5053704;28;20048;-89
2021/08/11 06:47:48;;;;;;;5.18;2.78;;;19.40;99.90;;;;;;5036006;28;20029;-88
2021/08/11 06:50:14;;;;;;;6.03;2.83;;;19.50;99.90;;;;;;5035801;28;20029;-89
2021/08/11 06:52:40;;;;;;;8.48;3.35;;;19.70;99.90;;;;;;5035878;28;20033;-89
2021/08/11 06:55:09;;;;;;;5.85;3.60;;;19.80;99.90;;;;;;5036246;28;20029;-89
2021/08/11 06:57:35;;;;;;;9.98;3.00;;;19.80;99.90;;;;;;5053423;28;20052;-89
2021/08/11 07:00:01;;;;;;;6.32;2.97;;;19.90;99.90;;;;;;5035483;28;20017;-89
2021/08/11 07:02:26;;;;;;;10.85;3.67;;;19.90;99.90;;;;;;5035698;28;20023;-89
2021/08/11 07:04:52;;;;;;;4.38;2.80;;;20.10;99.90;;;;;;5035696;28;20025;-89
2021/08/11 07:07:18;;;;;;;5.60;2.90;;;20.20;99.90;;;;;;5035512;28;20129;-89
2021/08/11 07:09:44;;;;;;;5.45;3.00;;;20.20;99.90;;;;;;5035607;28;20025;-89
2021/08/11 07:12:09;;;;;;;10.45;2.92;;;20.10;99.90;;;;;;5035350;28;20079;-89
2021/08/11 07:14:35;;;;;;;3.90;3.15;;;20.00;99.90;;;;;;5053295;28;20032;-89
2021/08/11 07:17:01;;;;;;;5.75;3.05;;;20.00;99.90;;;;;;5035396;28;20476;-89
2021/08/11 07:19:27;;;;;;;6.72;3.10;;;20.00;99.90;;;;;;5035231;28;20021;-89
2021/08/11 07:21:52;;;;;;;7.40;2.92;;;19.90;99.90;;;;;;5035286;28;20021;-89
2021/08/11 07:24:18;;;;;;;9.00;2.65;;;20.00;99.90;;;;;;5053166;28;20509;-89
2021/08/11 07:26:44;;;;;;;7.07;3.15;;;20.10;99.90;;;;;;5053137;28;20045;-89
2021/08/11 07:29:10;;;;;;;9.18;3.10;;;20.10;99.90;;;;;;5035573;28;20087;-89
2021/08/11 07:31:38;;;;;;;10.63;3.13;;;20.20;99.90;;;;;;5036167;28;20033;-89
2021/08/11 07:34:04;;;;;;;4.88;2.85;;;20.30;99.90;;;;;;5043517;28;20032;-89
2021/08/11 07:36:30;;;;;;;5.90;3.30;;;20.40;99.90;;;;;;5064695;28;20029;-89
2021/08/11 07:38:56;;;;;;;6.95;2.92;;;20.50;99.90;;;;;;5059688;28;20091;-89
2021/08/11 07:41:21;;;;;;;6.65;3.03;;;20.70;99.90;;;;;;5039308;28;20576;-89
2021/08/11 07:43:47;;;;;;;6.82;2.88;;;20.80;99.90;;;;;;5039346;28;20400;-89
2021/08/11 07:46:13;;;;;;;7.40;3.10;;;20.90;99.90;;;;;;5056934;28;20056;-90
2021/08/11 07:48:39;;;;;;;5.03;2.90;;;20.90;99.90;;;;;;5039010;28;20021;-89
2021/08/11 07:51:05;;;;;;;7.15;3.13;;;21.10;99.90;;;;;;5039410;28;20083;-89
2021/08/11 07:53:31;;;;;;;4.55;2.83;;;21.10;99.90;;;;;;5056850;28;20044;-89
2021/08/11 07:55:57;;;;;;;8.10;2.60;;;21.20;99.90;;;;;;5039018;28;20016;-89
2021/08/11 07:58:24;;;;;;;9.45;3.00;;;21.30;99.90;;;;;;5038852;28;20025;-89
2021/08/11 08:00:51;;;;;;;7.72;2.90;;;21.50;99.90;;;;;;5038942;28;20028;-89
2021/08/11 08:03:17;;;;;;;6.97;2.63;;;21.60;99.90;;;;;;5038851;28;20113;-90
2021/08/11 08:05:43;;;;;;;8.70;2.90;;;21.70;99.90;;;;;;5056902;28;20056;-89
2021/08/11 08:08:09;;;;;;;5.15;2.70;;;21.80;99.90;;;;;;5038777;28;20155;-87
2021/08/11 08:10:35;;;;;;;12.07;3.30;;;21.80;99.90;;;;;;5056517;28;20435;-89
2021/08/11 08:13:01;;;;;;;6.85;2.97;;;21.80;99.90;;;;;;5038827;28;20025;-89
2021/08/11 08:15:28;;;;;;;9.50;2.97;;;21.90;99.90;;;;;;5038653;28;20021;-89
2021/08/11 08:17:54;;;;;;;10.60;2.90;;;22.10;99.90;;;;;;5038492;28;20111;-90
2021/08/11 08:20:20;;;;;;;6.60;2.67;;;22.20;99.90;;;;;;5056494;28;20095;-89
2021/08/11 08:22:49;;;;;;;6.45;3.05;;;22.30;99.90;;;;;;5039091;28;20025;-89
2021/08/11 08:25:22;;;;;;;9.43;3.25;;;22.30;99.90;;;;;;5038480;28;20484;-89
2021/08/11 08:27:52;;;;;;;7.38;3.20;;;22.40;99.90;;;;;;5038312;28;20025;-89
2021/08/11 08:30:19;;;;;;;8.40;2.85;;;22.30;99.90;;;;;;5038648;28;20112;-88
2021/08/11 08:32:45;;;;;;;13.32;3.13;;;22.30;99.90;;;;;;5038467;28;20104;-88
2021/08/11 08:35:11;;;;;;;7.97;2.90;;;22.40;99.90;;;;;;5038172;28;20121;-88
2021/08/11 08:37:38;;;;;;;6.35;3.25;;;22.60;99.90;;;;;;5056070;28;20361;-90
2021/08/11 08:40:09;;;;;;;5.75;2.60;;;22.80;99.90;;;;;;5037948;28;20033;-89
2021/08/11 08:42:37;;;;;;;7.53;2.90;;;22.80;99.90;;;;;;5037705;28;20059;-89
2021/08/11 08:45:04;;;;;;;9.60;2.78;;;23.00;99.90;;;;;;5055935;28;20041;-88
2021/08/11 08:47:31;;;;;;;8.18;2.50;;;23.10;99.90;;;;;;5038078;28;20110;-88
2021/08/11 08:49:57;;;;;;;5.30;2.58;;;23.20;99.90;;;;;;5037897;28;20048;-89
2021/08/11 08:52:23;;;;;;;4.20;2.67;;;23.10;99.90;;;;;;5055529;28;20025;-89
2021/08/11 08:54:50;;;;;;;6.72;2.90;;;23.40;99.90;;;;;;5037702;28;20021;-90
2021/08/11 08:57:16;;;;;;;5.95;2.85;;;23.30;99.90;;;;;;5037725;28;20029;-89
2021/08/11 08:59:44;;;;;;;7.70;2.63;;;23.40;99.90;;;;;;5037528;28;20029;-89
2021/08/11 09:02:14;;;;;;;5.35;2.80;;;23.60;99.90;;;;;;5037664;28;20021;-89
2021/08/11 09:04:41;;;;;;;6.80;2.75;;;23.90;99.90;;;;;;5055530;28;20021;-89
2021/08/11 09:07:15;;;;;;;8.95;2.63;;;23.90;99.90;;;;;;5037549;28;20107;-89
2021/08/11 09:09:42;;;;;;;11.52;2.70;;;23.90;99.90;;;;;;5037695;28;20029;-89
2021/08/11 09:12:17;;;;;;;6.78;2.90;;;23.90;99.90;;;;;;5038299;28;20472;-89
2021/08/11 09:14:48;;;;;;;5.22;2.70;;;24.00;99.90;;;;;;5055296;28;20021;-88
2021/08/11 09:17:37;;;;;;;4.75;2.47;;;24.20;99.90;;;;;;5037330;28;20503;-90
2021/08/11 09:20:06;;;;;;;5.85;3.08;;;24.30;99.90;;;;;;5037591;28;20017;-89
2021/08/11 09:22:49;;;;;;;5.50;2.80;;;24.40;99.90;;;;;;5055254;28;20477;-88
2021/08/11 09:25:16;;;;;;;5.55;2.65;;;24.50;99.90;;;;;;5037313;28;20017;-88
2021/08/11 09:27:43;;;;;;;8.40;2.60;;;24.60;99.90;;;;;;5037315;28;20033;-89
2021/08/11 09:30:18;;;;;;;8.80;2.95;;;24.40;99.90;;;;;;5037685;28;20533;-88
2021/08/11 09:32:56;;;;;;;4.47;2.38;;;24.70;99.90;;;;;;5037293;28;20059;-88
2021/08/11 09:35:23;;;;;;;5.60;2.63;;;25.00;99.90;;;;;;5037212;28;20025;-89
2021/08/11 09:37:49;;;;;;;6.93;2.33;;;25.40;99.90;;;;;;5036797;28;20061;-88
2021/08/11 09:40:21;;;;;;;6.22;2.58;;;25.60;99.90;;;;;;5036605;28;20037;-89
2021/08/11 09:42:48;;;;;;;7.97;2.85;;;25.90;99.90;;;;;;5037103;28;20100;-90
2021/08/11 09:45:15;;;;;;;7.15;2.55;;;26.00;99.90;;;;;;5037009;28;20037;-89
2021/08/11 09:47:55;;;;;;;6.88;2.90;;;25.70;99.90;;;;;;5050875;28;20115;-89
2021/08/11 09:50:37;;;;;;;6.65;2.63;;;25.70;99.90;;;;;;5070068;28;20045;-89
2021/08/11 09:53:03;;;;;;;3.33;2.15;;;25.80;99.90;;;;;;5038294;28;20037;-89
2021/08/11 09:55:29;;;;;;;4.38;2.80;;;26.00;99.90;;;;;;5036472;28;20029;-88
2021/08/11 09:57:55;;;;;;;4.40;2.63;;;25.90;99.90;;;;;;5036391;28;20044;-88
2021/08/11 10:00:21;;;;;;;5.80;2.95;;;26.50;99.90;;;;;;5036601;28;20017;-88
2021/08/11 10:03:03;;;;;;;7.75;2.75;;;27.00;99.90;;;;;;5036765;28;20025;-88
2021/08/11 10:05:37;;;;;;;3.55;2.50;;;27.10;99.90;;;;;;5054376;28;20070;-86
2021/08/11 10:08:04;;;;;;;5.63;3.00;;;27.40;99.90;;;;;;5036425;28;20021;-88
2021/08/11 10:10:49;;;;;;;5.88;2.78;;;27.50;99.90;;;;;;5054109;28;20037;-89
2021/08/11 10:13:21;;;;;;;7.32;3.00;;;27.40;99.90;;;;;;5053032;28;20031;-89
2021/08/11 10:15:50;;;;;;;6.75;2.80;;;27.20;99.90;;;;;;5053970;28;20063;-89
2021/08/11 10:18:24;;;;;;;8.27;2.60;;;27.00;99.90;;;;;;5036225;28;20025;-89
2021/08/11 10:20:56;;;;;;;8.20;2.95;;;26.30;99.90;;;;;;5036047;28;20021;-89
2021/08/11 10:23:22;;;;;;;8.20;2.85;;;26.00;99.90;;;;;;5036079;28;20390;-89
2021/08/11 10:25:49;;;;;;;7.22;2.80;;;25.70;99.90;;;;;;5036089;28;20048;-89
2021/08/11 10:28:19;;;;;;;8.63;2.75;;;25.60;99.90;;;;;;5036151;28;20559;-89
2021/08/11 10:30:45;;;;;;;7.78;2.67;;;25.50;99.90;;;;;;5035991;28;20029;-89
2021/08/11 10:33:14;;;;;;;6.43;2.80;;;25.50;99.90;;;;;;5035952;28;20067;-89
2021/08/11 10:35:43;;;;;;;6.18;2.90;;;25.40;99.90;;;;;;5054387;28;20032;-90
2021/08/11 10:38:09;;;;;;;7.82;2.88;;;25.90;99.90;;;;;;5035829;28;20028;-89
2021/08/11 10:40:35;;;;;;;10.68;2.78;;;25.60;99.90;;;;;;5035780;28;20378;-89
2021/08/11 10:43:01;;;;;;;6.40;2.80;;;25.50;99.90;;;;;;5053917;28;20020;-89
2021/08/11 10:45:27;;;;;;;6.22;2.60;;;25.50;99.90;;;;;;5035778;28;20534;-90
2021/08/11 10:47:53;;;;;;;6.90;3.03;;;25.40;99.90;;;;;;5035712;28;20078;-89
2021/08/11 10:50:19;;;;;;;6.05;2.70;;;25.30;99.90;;;;;;5053492;28;20029;-89
2021/08/11 10:52:45;;;;;;;5.28;2.40;;;25.30;99.90;;;;;;5035586;28;20029;-88
2021/08/11 10:55:12;;;;;;;8.20;2.60;;;26.20;99.90;;;;;;5035482;28;20063;-88
2021/08/11 10:57:38;;;;;;;6.68;2.70;;;26.80;99.90;;;;;;5035410;28;20094;-89
2021/08/11 11:00:31;;;;;;;5.60;3.00;;;26.60;99.90;;;;;;5035495;28;20028;-88
2021/08/11 11:02:59;;;;;;;3.75;2.80;;;27.00;99.90;;;;;;5022067;28;20036;-88
2021/08/11 11:05:26;;;;;;;4.20;2.70;;;27.90;99.90;;;;;;5035177;28;20021;-88
2021/08/11 11:08:14;;;;;;;5.47;2.40;;;28.00;99.90;;;;;;5035324;28;20024;-87
2021/08/11 11:10:44;;;;;;;8.48;2.63;;;28.60;99.90;;;;;;5035233;28;20221;-88
2021/08/11 11:13:34;;;;;;;4.13;2.20;;;28.40;99.90;;;;;;5036916;28;20033;-88
2021/08/11 11:16:02;;;;;;;3.53;2.55;;;27.60;99.90;;;;;;5037499;28;20193;-89
2021/08/11 11:18:27;;;;;;;3.90;2.13;;;27.10;99.90;;;;;;5055083;28;20100;-89
2021/08/11 11:20:56;;;;;;;5.10;2.40;;;26.70;99.90;;;;;;5053912;28;20094;-89
2021/08/11 11:23:42;;;;;;;3.90;2.20;;;26.60;99.90;;;;;;5037196;28;20021;-88
2021/08/11 11:26:16;;;;;;;4.53;2.10;;;27.30;99.90;;;;;;5036976;28;20093;-88
2021/08/11 11:28:55;;;;;;;6.82;2.28;;;28.20;99.90;;;;;;5037070;28;20009;-88
2021/08/11 11:31:46;;;;;;;6.68;2.30;;;28.80;99.90;;;;;;5036859;28;20033;-87
2021/08/11 11:34:27;;;;;;;6.50;2.40;;;28.90;99.90;;;;;;5036710;28;20489;-88
2021/08/11 11:36:55;;;;;;;4.57;2.22;;;29.30;99.90;;;;;;5036776;28;20112;-88
2021/08/11 11:39:23;;;;;;;5.10;2.30;;;29.10;99.90;;;;;;5036753;28;20021;-88
2021/08/11 11:42:07;;;;;;;4.90;2.08;;;28.70;99.90;;;;;;5036637;28;20071;-88
2021/08/11 11:44:42;;;;;;;3.70;2.30;;;28.20;99.90;;;;;;5036630;28;20028;-87
2021/08/11 11:47:08;;;;;;;8.43;2.40;;;28.60;99.90;;;;;;5036721;28;20036;-88
2021/08/11 11:49:34;;;;;;;7.35;2.35;;;27.90;99.90;;;;;;5036726;28;20029;-88
2021/08/11 11:52:01;;;;;;;3.17;1.90;;;27.90;99.90;;;;;;5036389;28;20036;-88
2021/08/11 11:54:27;;;;;;;3.55;2.10;;;27.70;99.90;;;;;;5035840;28;20029;-88
2021/08/11 11:56:53;;;;;;;3.33;1.95;;;28.40;99.90;;;;;;5036778;28;20025;-88
2021/08/11 11:59:20;;;;;;;6.10;2.30;;;29.10;99.90;;;;;;5047083;28;20020;-88
2021/08/11 12:01:46;;;;;;;6.90;2.42;;;29.70;99.90;;;;;;5064475;28;20017;-88
2021/08/11 12:04:22;;;;;;;6.38;2.10;;;28.80;99.90;;;;;;5041242;28;20021;-88
2021/08/11 12:06:48;;;;;;;2.78;1.90;;;28.90;99.90;;;;;;5055895;28;20021;-88
2021/08/11 12:09:14;;;;;;;5.72;2.22;;;28.40;99.90;;;;;;5038750;28;20032;-87
2021/08/11 12:11:40;;;;;;;3.65;2.28;;;27.50;99.90;;;;;;5037846;28;20087;-88
2021/08/11 12:14:06;;;;;;;4.75;2.15;;;27.90;99.90;;;;;;5039161;28;20029;-88
2021/08/11 12:16:40;;;;;;;4.47;2.17;;;28.20;99.90;;;;;;5054675;28;20471;-87
2021/08/11 12:19:17;;;;;;;3.47;1.90;;;29.10;99.90;;;;;;5039211;28;20036;-87
2021/08/11 12:21:44;;;;;;;5.57;2.10;;;30.30;99.90;;;;;;5058157;28;20070;-88
2021/08/11 12:24:10;;;;;;;8.05;2.17;;;30.90;99.90;;;;;;5039768;28;20029;-88
2021/08/11 12:26:39;;;;;;;4.10;2.05;;;31.10;99.90;;;;;;5040025;28;20073;-87
2021/08/11 12:29:17;;;;;;;7.68;2.35;;;31.60;99.90;;;;;;5039756;28;20021;-87
2021/08/11 12:31:43;;;;;;;3.35;2.00;;;31.50;99.90;;;;;;5039862;28;20052;-87
2021/08/11 12:34:10;;;;;;;4.43;2.00;;;32.10;99.90;;;;;;5039644;28;20079;-88
2021/08/11 12:36:38;;;;;;;5.03;1.92;;;32.40;99.90;;;;;;5039120;28;20029;-88
2021/08/11 12:39:13;;;;;;;2.70;1.75;;;32.30;99.90;;;;;;5057546;28;20100;-88
2021/08/11 12:41:41;;;;;;;;;;;31.00;99.90;;;;;;5039943;28;20059;-88
2021/08/11 12:44:18;;;;;;;7.05;2.33;;;29.90;99.90;;;;;;5039747;28;20003;-88
2021/08/11 12:46:43;;;;;;;5.00;2.28;;;28.90;99.90;;;;;;5039773;28;20017;-88
2021/08/11 12:49:14;;;;;;;7.30;2.10;;;29.30;99.90;;;;;;5057629;28;20471;-89
2021/08/11 12:51:40;;;;;;;3.28;2.03;;;30.50;99.90;;;;;;5039529;28;20484;-89
2021/08/11 12:54:10;;;;;;;5.60;2.28;;;31.00;99.90;;;;;;5057565;28;20023;-88